sensor_id;sensor_type;location;lat;lon;timestamp;P1;durP1;ratioP1;P2;durP2;ratioP2
69912;SDS011;57198;52.082;5.108;2023-09-19T00:01:40;5.93;;;1.50;;
69912;SDS011;57198;52.082;5.108;2023-09-19T00:04:08;5.45;;;1.10;;
69912;SDS011;57198;52.082;5.108;2023-09-19T00:06:36;4.40;;;1.60;;
69912;SDS011;57198;52.082;5.108;2023-09-19T00:09:04;8.80;;;1.60;;
69912;SDS011;57198;52.082;5.108;2023-09-19T00:11:32;10.83;;;1.70;;
69912;SDS011;57198;52.082;5.108;2023-09-19T00:14:01;5.82;;;1.45;;
69912;SDS011;57198;52.082;5.108;2023-09-19T00:16:29;5.38;;;1.52;;
69912;SDS011;57198;52.082;5.108;2023-09-19T00:18:56;6.30;;;1.55;;
69912;SDS011;57198;52.082;5.108;2023-09-19T00:21:24;5.30;;;1.20;;
69912;SDS011;57198;52.082;5.108;2023-09-19T00:23:51;6.17;;;1.40;;
69912;SDS011;57198;52.082;5.108;2023-09-19T00:26:19;6.35;;;1.13;;
69912;SDS011;57198;52.082;5.108;2023-09-19T00:28:48;6.20;;;1.30;;
69912;SDS011;57198;52.082;5.108;2023-09-19T00:31:15;10.32;;;1.60;;
69912;SDS011;57198;52.082;5.108;2023-09-19T00:33:43;6.25;;;1.50;;
69912;SDS011;57198;52.082;5.108;2023-09-19T00:36:10;7.47;;;1.30;;
69912;SDS011;57198;52.082;5.108;2023-09-19T00:38:37;5.32;;;1.15;;
69912;SDS011;57198;52.082;5.108;2023-09-19T00:41:05;5.57;;;1.70;;
69912;SDS011;57198;52.082;5.108;2023-09-19T00:43:34;3.53;;;1.55;;
69912;SDS011;57198;52.082;5.108;2023-09-19T00:46:02;5.03;;;1.73;;
69912;SDS011;57198;52.082;5.108;2023-09-19T00:48:33;6.60;;;1.67;;
69912;SDS011;57198;52.082;5.108;2023-09-19T00:51:03;4.40;;;1.25;;
69912;SDS011;57198;52.082;5.108;2023-09-19T00:53:31;5.32;;;1.67;;
69912;SDS011;57198;52.082;5.108;2023-09-19T00:56:00;4.03;;;1.27;;
69912;SDS011;57198;52.082;5.108;2023-09-19T00:58:30;7.47;;;1.50;;
69912;SDS011;57198;52.082;5.108;2023-09-19T01:01:01;5.17;;;1.50;;
69912;SDS011;57198;52.082;5.108;2023-09-19T01:03:30;3.65;;;1.42;;
69912;SDS011;57198;52.082;5.108;2023-09-19T01:05:58;5.65;;;1.58;;
69912;SDS011;57198;52.082;5.108;2023-09-19T01:08:27;4.13;;;1.20;;
69912;SDS011;57198;52.082;5.108;2023-09-19T01:10:59;3.05;;;1.33;;
69912;SDS011;57198;52.082;5.108;2023-09-19T01:13:31;7.50;;;1.50;;
69912;SDS011;57198;52.082;5.108;2023-09-19T01:16:03;7.78;;;1.55;;
69912;SDS011;57198;52.082;5.108;2023-09-19T01:18:43;5.82;;;1.25;;
69912;SDS011;57198;52.082;5.108;2023-09-19T01:24:34;7.35;;;2.05;;
69912;SDS011;57198;52.082;5.108;2023-09-19T01:27:24;6.47;;;1.60;;
69912;SDS011;57198;52.082;5.108;2023-09-19T01:29:59;6.10;;;1.55;;
69912;SDS011;57198;52.082;5.108;2023-09-19T01:32:27;6.47;;;1.48;;
69912;SDS011;57198;52.082;5.108;2023-09-19T01:34:56;8.90;;;1.73;;
69912;SDS011;57198;52.082;5.108;2023-09-19T01:37:30;9.95;;;1.75;;
69912;SDS011;57198;52.082;5.108;2023-09-19T01:40:07;6.10;;;1.50;;
69912;SDS011;57198;52.082;5.108;2023-09-19T01:42:44;5.75;;;1.52;;
69912;SDS011;57198;52.082;5.108;2023-09-19T01:47:46;4.97;;;1.58;;
69912;SDS011;57198;52.082;5.108;2023-09-19T01:53:22;6.43;;;1.87;;
69912;SDS011;57198;52.082;5.108;2023-09-19T01:55:37;5.95;;;1.65;;
69912;SDS011;57198;52.082;5.108;2023-09-19T01:58:25;11.60;;;1.73;;
69912;SDS011;57198;52.082;5.108;2023-09-19T02:00:54;6.22;;;1.65;;
69912;SDS011;57198;52.082;5.108;2023-09-19T02:03:23;8.60;;;2.03;;
69912;SDS011;57198;52.082;5.108;2023-09-19T02:05:51;3.70;;;1.60;;
69912;SDS011;57198;52.082;5.108;2023-09-19T02:08:20;4.50;;;1.40;;
69912;SDS011;57198;52.082;5.108;2023-09-19T02:10:51;5.70;;;1.85;;
69912;SDS011;57198;52.082;5.108;2023-09-19T02:13:19;6.30;;;1.85;;
69912;SDS011;57198;52.082;5.108;2023-09-19T02:15:47;5.95;;;1.67;;
69912;SDS011;57198;52.082;5.108;2023-09-19T02:18:15;6.03;;;1.63;;
69912;SDS011;57198;52.082;5.108;2023-09-19T02:20:43;7.18;;;1.40;;
69912;SDS011;57198;52.082;5.108;2023-09-19T02:23:12;7.65;;;1.48;;
69912;SDS011;57198;52.082;5.108;2023-09-19T02:25:40;6.60;;;2.25;;
69912;SDS011;57198;52.082;5.108;2023-09-19T02:28:07;8.88;;;2.50;;
69912;SDS011;57198;52.082;5.108;2023-09-19T02:30:35;7.73;;;2.07;;
69912;SDS011;57198;52.082;5.108;2023-09-19T02:33:03;6.82;;;1.85;;
69912;SDS011;57198;52.082;5.108;2023-09-19T02:35:32;8.32;;;2.13;;
69912;SDS011;57198;52.082;5.108;2023-09-19T02:38:02;7.72;;;1.77;;
69912;SDS011;57198;52.082;5.108;2023-09-19T02:40:33;11.60;;;2.20;;
69912;SDS011;57198;52.082;5.108;2023-09-19T02:43:02;9.33;;;1.73;;
69912;SDS011;57198;52.082;5.108;2023-09-19T02:45:31;11.18;;;2.03;;
69912;SDS011;57198;52.082;5.108;2023-09-19T02:47:59;8.50;;;2.13;;
69912;SDS011;57198;52.082;5.108;2023-09-19T02:50:29;7.60;;;1.85;;
69912;SDS011;57198;52.082;5.108;2023-09-19T02:52:56;9.77;;;2.45;;
69912;SDS011;57198;52.082;5.108;2023-09-19T02:55:24;9.97;;;1.80;;
69912;SDS011;57198;52.082;5.108;2023-09-19T02:57:53;10.63;;;2.55;;
69912;SDS011;57198;52.082;5.108;2023-09-19T03:00:24;12.13;;;2.85;;
69912;SDS011;57198;52.082;5.108;2023-09-19T03:02:53;8.02;;;2.00;;
69912;SDS011;57198;52.082;5.108;2023-09-19T03:05:21;7.63;;;1.90;;
69912;SDS011;57198;52.082;5.108;2023-09-19T03:07:50;11.57;;;2.00;;
69912;SDS011;57198;52.082;5.108;2023-09-19T03:10:19;8.80;;;2.03;;
69912;SDS011;57198;52.082;5.108;2023-09-19T03:12:47;12.00;;;3.28;;
69912;SDS011;57198;52.082;5.108;2023-09-19T03:15:16;12.50;;;2.38;;
69912;SDS011;57198;52.082;5.108;2023-09-19T03:17:46;6.38;;;2.03;;
69912;SDS011;57198;52.082;5.108;2023-09-19T03:20:18;7.87;;;1.93;;
69912;SDS011;57198;52.082;5.108;2023-09-19T03:22:48;8.88;;;2.13;;
69912;SDS011;57198;52.082;5.108;2023-09-19T03:25:15;7.57;;;2.10;;
69912;SDS011;57198;52.082;5.108;2023-09-19T03:27:47;11.68;;;1.92;;
69912;SDS011;57198;52.082;5.108;2023-09-19T03:30:15;11.77;;;2.30;;
69912;SDS011;57198;52.082;5.108;2023-09-19T03:32:43;9.00;;;2.53;;
69912;SDS011;57198;52.082;5.108;2023-09-19T03:35:11;14.13;;;2.00;;
69912;SDS011;57198;52.082;5.108;2023-09-19T03:37:41;9.35;;;2.25;;
69912;SDS011;57198;52.082;5.108;2023-09-19T03:40:09;9.10;;;1.92;;
69912;SDS011;57198;52.082;5.108;2023-09-19T03:42:38;7.50;;;2.13;;
69912;SDS011;57198;52.082;5.108;2023-09-19T03:45:09;6.90;;;2.00;;
69912;SDS011;57198;52.082;5.108;2023-09-19T03:47:49;6.75;;;2.05;;
69912;SDS011;57198;52.082;5.108;2023-09-19T03:50:19;10.13;;;2.22;;
69912;SDS011;57198;52.082;5.108;2023-09-19T03:52:46;9.02;;;2.45;;
69912;SDS011;57198;52.082;5.108;2023-09-19T03:55:14;6.50;;;1.98;;
69912;SDS011;57198;52.082;5.108;2023-09-19T03:57:41;7.90;;;1.90;;
69912;SDS011;57198;52.082;5.108;2023-09-19T04:00:09;9.95;;;2.13;;
69912;SDS011;57198;52.082;5.108;2023-09-19T04:02:41;10.73;;;2.50;;
69912;SDS011;57198;52.082;5.108;2023-09-19T04:05:09;8.88;;;2.50;;
69912;SDS011;57198;52.082;5.108;2023-09-19T04:07:37;11.85;;;2.40;;
69912;SDS011;57198;52.082;5.108;2023-09-19T04:10:04;6.87;;;2.10;;
69912;SDS011;57198;52.082;5.108;2023-09-19T04:12:35;9.32;;;2.33;;
69912;SDS011;57198;52.082;5.108;2023-09-19T04:15:02;9.63;;;2.33;;
69912;SDS011;57198;52.082;5.108;2023-09-19T04:17:30;8.60;;;2.15;;
69912;SDS011;57198;52.082;5.108;2023-09-19T04:19:59;10.48;;;1.85;;
69912;SDS011;57198;52.082;5.108;2023-09-19T04:22:27;7.53;;;2.00;;
69912;SDS011;57198;52.082;5.108;2023-09-19T04:24:54;5.78;;;2.15;;
69912;SDS011;57198;52.082;5.108;2023-09-19T04:27:21;7.65;;;2.13;;
69912;SDS011;57198;52.082;5.108;2023-09-19T04:29:49;9.57;;;2.10;;
69912;SDS011;57198;52.082;5.108;2023-09-19T04:32:17;6.47;;;2.10;;
69912;SDS011;57198;52.082;5.108;2023-09-19T04:34:44;9.03;;;2.40;;
69912;SDS011;57198;52.082;5.108;2023-09-19T04:37:12;10.10;;;2.17;;
69912;SDS011;57198;52.082;5.108;2023-09-19T04:39:41;10.10;;;2.38;;
69912;SDS011;57198;52.082;5.108;2023-09-19T04:42:09;11.85;;;2.50;;
69912;SDS011;57198;52.082;5.108;2023-09-19T04:44:40;8.98;;;2.20;;
69912;SDS011;57198;52.082;5.108;2023-09-19T04:47:09;8.10;;;2.03;;
69912;SDS011;57198;52.082;5.108;2023-09-19T04:49:38;10.23;;;2.00;;
69912;SDS011;57198;52.082;5.108;2023-09-19T04:52:06;6.43;;;1.77;;
69912;SDS011;57198;52.082;5.108;2023-09-19T04:54:33;6.32;;;1.90;;
69912;SDS011;57198;52.082;5.108;2023-09-19T04:57:01;7.50;;;2.40;;
69912;SDS011;57198;52.082;5.108;2023-09-19T04:59:28;6.83;;;1.63;;
69912;SDS011;57198;52.082;5.108;2023-09-19T05:01:55;8.52;;;1.85;;
69912;SDS011;57198;52.082;5.108;2023-09-19T05:04:23;6.18;;;2.13;;
69912;SDS011;57198;52.082;5.108;2023-09-19T05:06:50;7.03;;;1.60;;
69912;SDS011;57198;52.082;5.108;2023-09-19T05:09:18;10.75;;;2.20;;
69912;SDS011;57198;52.082;5.108;2023-09-19T05:11:46;8.77;;;2.60;;
69912;SDS011;57198;52.082;5.108;2023-09-19T05:14:13;7.82;;;2.17;;
69912;SDS011;57198;52.082;5.108;2023-09-19T05:16:40;9.63;;;2.20;;
69912;SDS011;57198;52.082;5.108;2023-09-19T05:19:08;7.35;;;2.30;;
69912;SDS011;57198;52.082;5.108;2023-09-19T05:21:38;9.82;;;2.40;;
69912;SDS011;57198;52.082;5.108;2023-09-19T05:24:05;12.80;;;3.17;;
69912;SDS011;57198;52.082;5.108;2023-09-19T05:26:36;11.38;;;2.13;;
69912;SDS011;57198;52.082;5.108;2023-09-19T05:29:03;8.27;;;2.30;;
69912;SDS011;57198;52.082;5.108;2023-09-19T05:31:31;8.95;;;2.50;;
69912;SDS011;57198;52.082;5.108;2023-09-19T05:33:59;10.43;;;2.75;;
69912;SDS011;57198;52.082;5.108;2023-09-19T05:36:27;9.63;;;2.43;;
69912;SDS011;57198;52.082;5.108;2023-09-19T05:38:56;6.50;;;1.90;;
69912;SDS011;57198;52.082;5.108;2023-09-19T05:41:23;8.43;;;2.20;;
69912;SDS011;57198;52.082;5.108;2023-09-19T05:43:51;11.75;;;1.90;;
69912;SDS011;57198;52.082;5.108;2023-09-19T05:46:18;12.15;;;2.20;;
69912;SDS011;57198;52.082;5.108;2023-09-19T05:48:46;12.67;;;2.27;;
69912;SDS011;57198;52.082;5.108;2023-09-19T05:51:14;11.43;;;2.70;;
69912;SDS011;57198;52.082;5.108;2023-09-19T05:53:43;10.25;;;2.38;;
69912;SDS011;57198;52.082;5.108;2023-09-19T05:56:10;8.52;;;2.38;;
69912;SDS011;57198;52.082;5.108;2023-09-19T05:58:40;6.30;;;2.17;;
69912;SDS011;57198;52.082;5.108;2023-09-19T06:01:10;8.50;;;2.60;;
69912;SDS011;57198;52.082;5.108;2023-09-19T06:03:38;9.82;;;2.30;;
69912;SDS011;57198;52.082;5.108;2023-09-19T06:06:05;10.13;;;2.65;;
69912;SDS011;57198;52.082;5.108;2023-09-19T06:08:33;6.65;;;1.98;;
69912;SDS011;57198;52.082;5.108;2023-09-19T06:11:00;9.38;;;2.05;;
69912;SDS011;57198;52.082;5.108;2023-09-19T06:13:28;10.33;;;2.27;;
69912;SDS011;57198;52.082;5.108;2023-09-19T06:15:55;7.43;;;2.35;;
69912;SDS011;57198;52.082;5.108;2023-09-19T06:18:23;12.85;;;2.40;;
69912;SDS011;57198;52.082;5.108;2023-09-19T06:20:52;10.18;;;2.53;;
69912;SDS011;57198;52.082;5.108;2023-09-19T06:23:20;11.40;;;3.35;;
69912;SDS011;57198;52.082;5.108;2023-09-19T06:25:49;9.90;;;2.50;;
69912;SDS011;57198;52.082;5.108;2023-09-19T06:28:16;14.07;;;2.97;;
69912;SDS011;57198;52.082;5.108;2023-09-19T06:30:49;14.10;;;2.78;;
69912;SDS011;57198;52.082;5.108;2023-09-19T06:33:16;10.60;;;1.75;;
69912;SDS011;57198;52.082;5.108;2023-09-19T06:35:46;14.00;;;2.75;;
69912;SDS011;57198;52.082;5.108;2023-09-19T06:38:14;13.07;;;2.47;;
69912;SDS011;57198;52.082;5.108;2023-09-19T06:40:42;8.65;;;2.10;;
69912;SDS011;57198;52.082;5.108;2023-09-19T06:43:12;13.73;;;2.70;;
69912;SDS011;57198;52.082;5.108;2023-09-19T06:45:40;7.35;;;1.90;;
69912;SDS011;57198;52.082;5.108;2023-09-19T06:48:08;11.73;;;2.90;;
69912;SDS011;57198;52.082;5.108;2023-09-19T06:50:36;7.30;;;1.80;;
69912;SDS011;57198;52.082;5.108;2023-09-19T06:53:05;8.18;;;2.00;;
69912;SDS011;57198;52.082;5.108;2023-09-19T06:55:32;14.25;;;2.50;;
69912;SDS011;57198;52.082;5.108;2023-09-19T06:58:00;8.27;;;2.08;;
69912;SDS011;57198;52.082;5.108;2023-09-19T07:00:28;12.68;;;2.38;;
69912;SDS011;57198;52.082;5.108;2023-09-19T07:02:58;7.83;;;2.20;;
69912;SDS011;57198;52.082;5.108;2023-09-19T07:05:28;9.13;;;2.20;;
69912;SDS011;57198;52.082;5.108;2023-09-19T07:07:55;9.27;;;2.03;;
69912;SDS011;57198;52.082;5.108;2023-09-19T07:10:25;8.35;;;2.38;;
69912;SDS011;57198;52.082;5.108;2023-09-19T07:13:00;10.52;;;2.47;;
69912;SDS011;57198;52.082;5.108;2023-09-19T07:15:29;12.17;;;2.20;;
69912;SDS011;57198;52.082;5.108;2023-09-19T07:18:05;6.60;;;1.73;;
69912;SDS011;57198;52.082;5.108;2023-09-19T07:20:33;7.28;;;2.20;;
69912;SDS011;57198;52.082;5.108;2023-09-19T07:23:01;13.63;;;2.58;;
69912;SDS011;57198;52.082;5.108;2023-09-19T07:25:29;12.00;;;2.75;;
69912;SDS011;57198;52.082;5.108;2023-09-19T07:27:59;9.00;;;1.73;;
69912;SDS011;57198;52.082;5.108;2023-09-19T07:30:27;9.27;;;2.30;;
69912;SDS011;57198;52.082;5.108;2023-09-19T07:32:55;8.85;;;2.40;;
69912;SDS011;57198;52.082;5.108;2023-09-19T07:35:23;12.50;;;2.45;;
69912;SDS011;57198;52.082;5.108;2023-09-19T07:37:51;11.18;;;2.47;;
69912;SDS011;57198;52.082;5.108;2023-09-19T07:40:19;9.50;;;2.17;;
69912;SDS011;57198;52.082;5.108;2023-09-19T07:42:50;12.55;;;2.53;;
69912;SDS011;57198;52.082;5.108;2023-09-19T07:45:17;12.25;;;2.35;;
69912;SDS011;57198;52.082;5.108;2023-09-19T07:47:48;7.45;;;2.30;;
69912;SDS011;57198;52.082;5.108;2023-09-19T07:50:16;9.93;;;2.17;;
69912;SDS011;57198;52.082;5.108;2023-09-19T07:52:47;11.70;;;1.83;;
69912;SDS011;57198;52.082;5.108;2023-09-19T07:55:17;11.23;;;2.60;;
69912;SDS011;57198;52.082;5.108;2023-09-19T07:57:46;16.48;;;2.80;;
69912;SDS011;57198;52.082;5.108;2023-09-19T08:00:13;15.02;;;2.42;;
69912;SDS011;57198;52.082;5.108;2023-09-19T08:02:41;13.85;;;2.58;;
69912;SDS011;57198;52.082;5.108;2023-09-19T08:05:09;10.43;;;2.17;;
69912;SDS011;57198;52.082;5.108;2023-09-19T08:07:38;12.73;;;2.78;;
69912;SDS011;57198;52.082;5.108;2023-09-19T08:10:06;8.25;;;2.50;;
69912;SDS011;57198;52.082;5.108;2023-09-19T08:12:34;10.23;;;2.03;;
69912;SDS011;57198;52.082;5.108;2023-09-19T08:15:02;14.15;;;3.85;;
69912;SDS011;57198;52.082;5.108;2023-09-19T08:17:33;13.47;;;2.50;;
69912;SDS011;57198;52.082;5.108;2023-09-19T08:20:01;13.45;;;3.13;;
69912;SDS011;57198;52.082;5.108;2023-09-19T08:22:31;8.90;;;1.98;;
69912;SDS011;57198;52.082;5.108;2023-09-19T08:24:59;8.43;;;1.90;;
69912;SDS011;57198;52.082;5.108;2023-09-19T08:27:31;10.43;;;2.92;;
69912;SDS011;57198;52.082;5.108;2023-09-19T08:29:58;11.17;;;2.50;;
69912;SDS011;57198;52.082;5.108;2023-09-19T08:32:25;8.70;;;2.03;;
69912;SDS011;57198;52.082;5.108;2023-09-19T08:34:54;8.45;;;2.08;;
69912;SDS011;57198;52.082;5.108;2023-09-19T08:37:21;10.15;;;2.40;;
69912;SDS011;57198;52.082;5.108;2023-09-19T08:39:49;9.70;;;2.65;;
69912;SDS011;57198;52.082;5.108;2023-09-19T08:42:16;13.00;;;2.47;;
69912;SDS011;57198;52.082;5.108;2023-09-19T08:44:46;14.20;;;2.55;;
69912;SDS011;57198;52.082;5.108;2023-09-19T08:47:16;6.82;;;1.80;;
69912;SDS011;57198;52.082;5.108;2023-09-19T08:50:00;10.40;;;2.63;;
69912;SDS011;57198;52.082;5.108;2023-09-19T08:52:36;9.77;;;2.10;;
69912;SDS011;57198;52.082;5.108;2023-09-19T08:55:06;11.30;;;2.60;;
69912;SDS011;57198;52.082;5.108;2023-09-19T08:57:36;10.93;;;2.30;;
69912;SDS011;57198;52.082;5.108;2023-09-19T09:00:08;12.75;;;2.15;;
69912;SDS011;57198;52.082;5.108;2023-09-19T09:02:41;6.38;;;1.73;;
69912;SDS011;57198;52.082;5.108;2023-09-19T09:05:10;14.55;;;2.35;;
69912;SDS011;57198;52.082;5.108;2023-09-19T09:07:37;8.77;;;1.90;;
69912;SDS011;57198;52.082;5.108;2023-09-19T09:10:06;6.68;;;1.80;;
69912;SDS011;57198;52.082;5.108;2023-09-19T09:12:34;11.02;;;2.75;;
69912;SDS011;57198;52.082;5.108;2023-09-19T09:15:07;11.75;;;2.65;;
69912;SDS011;57198;52.082;5.108;2023-09-19T09:17:38;19.25;;;2.40;;
69912;SDS011;57198;52.082;5.108;2023-09-19T09:20:05;10.63;;;2.47;;
69912;SDS011;57198;52.082;5.108;2023-09-19T09:22:34;11.68;;;1.92;;
69912;SDS011;57198;52.082;5.108;2023-09-19T09:25:03;13.02;;;2.03;;
69912;SDS011;57198;52.082;5.108;2023-09-19T09:27:31;13.48;;;2.45;;
69912;SDS011;57198;52.082;5.108;2023-09-19T09:30:00;6.70;;;1.58;;
69912;SDS011;57198;52.082;5.108;2023-09-19T09:32:28;12.23;;;2.43;;
69912;SDS011;57198;52.082;5.108;2023-09-19T09:35:01;10.43;;;1.95;;
69912;SDS011;57198;52.082;5.108;2023-09-19T09:37:30;12.52;;;2.10;;
69912;SDS011;57198;52.082;5.108;2023-09-19T09:39:59;8.32;;;1.83;;
69912;SDS011;57198;52.082;5.108;2023-09-19T09:42:45;8.95;;;2.35;;
69912;SDS011;57198;52.082;5.108;2023-09-19T09:45:14;13.97;;;2.23;;
69912;SDS011;57198;52.082;5.108;2023-09-19T09:47:42;10.40;;;1.85;;
69912;SDS011;57198;52.082;5.108;2023-09-19T09:50:30;10.38;;;1.90;;
69912;SDS011;57198;52.082;5.108;2023-09-19T09:53:26;11.50;;;1.98;;
69912;SDS011;57198;52.082;5.108;2023-09-19T09:56:01;7.80;;;1.70;;
69912;SDS011;57198;52.082;5.108;2023-09-19T09:58:37;11.03;;;1.90;;
69912;SDS011;57198;52.082;5.108;2023-09-19T10:01:07;6.60;;;1.40;;
69912;SDS011;57198;52.082;5.108;2023-09-19T10:03:41;9.23;;;2.00;;
69912;SDS011;57198;52.082;5.108;2023-09-19T10:06:16;8.13;;;1.73;;
69912;SDS011;57198;52.082;5.108;2023-09-19T10:11:42;12.33;;;2.50;;
69912;SDS011;57198;52.082;5.108;2023-09-19T10:14:16;10.23;;;2.08;;
69912;SDS011;57198;52.082;5.108;2023-09-19T10:16:50;9.50;;;1.75;;
69912;SDS011;57198;52.082;5.108;2023-09-19T10:19:24;7.18;;;1.92;;
69912;SDS011;57198;52.082;5.108;2023-09-19T10:21:56;5.70;;;1.58;;
69912;SDS011;57198;52.082;5.108;2023-09-19T10:24:25;8.17;;;1.90;;
69912;SDS011;57198;52.082;5.108;2023-09-19T10:26:53;7.38;;;1.70;;
69912;SDS011;57198;52.082;5.108;2023-09-19T10:29:21;10.32;;;2.60;;
69912;SDS011;57198;52.082;5.108;2023-09-19T10:31:52;7.20;;;1.92;;
69912;SDS011;57198;52.082;5.108;2023-09-19T10:34:20;5.35;;;1.42;;
69912;SDS011;57198;52.082;5.108;2023-09-19T10:36:48;4.70;;;1.30;;
69912;SDS011;57198;52.082;5.108;2023-09-19T10:39:18;5.18;;;1.13;;
69912;SDS011;57198;52.082;5.108;2023-09-19T10:41:47;8.10;;;1.58;;
69912;SDS011;57198;52.082;5.108;2023-09-19T10:44:25;4.30;;;1.20;;
69912;SDS011;57198;52.082;5.108;2023-09-19T10:46:54;10.50;;;1.20;;
69912;SDS011;57198;52.082;5.108;2023-09-19T10:49:23;7.03;;;1.50;;
69912;SDS011;57198;52.082;5.108;2023-09-19T10:51:54;7.53;;;1.55;;
69912;SDS011;57198;52.082;5.108;2023-09-19T10:54:26;7.20;;;1.40;;
69912;SDS011;57198;52.082;5.108;2023-09-19T10:56:54;7.35;;;1.48;;
69912;SDS011;57198;52.082;5.108;2023-09-19T10:59:25;5.65;;;1.75;;
69912;SDS011;57198;52.082;5.108;2023-09-19T11:02:15;14.77;;;1.80;;
69912;SDS011;57198;52.082;5.108;2023-09-19T11:04:44;8.95;;;1.58;;
69912;SDS011;57198;52.082;5.108;2023-09-19T11:07:14;3.88;;;1.27;;
69912;SDS011;57198;52.082;5.108;2023-09-19T11:12:12;5.47;;;1.20;;
69912;SDS011;57198;52.082;5.108;2023-09-19T11:16:02;3.87;;;0.97;;
69912;SDS011;57198;52.082;5.108;2023-09-19T11:17:59;4.38;;;1.20;;
69912;SDS011;57198;52.082;5.108;2023-09-19T11:20:26;6.25;;;1.55;;
69912;SDS011;57198;52.082;5.108;2023-09-19T11:30:45;4.15;;;1.00;;
69912;SDS011;57198;52.082;5.108;2023-09-19T11:33:24;6.65;;;1.45;;
69912;SDS011;57198;52.082;5.108;2023-09-19T11:36:03;7.55;;;1.20;;
69912;SDS011;57198;52.082;5.108;2023-09-19T11:46:30;8.70;;;1.65;;
69912;SDS011;57198;52.082;5.108;2023-09-19T11:49:07;3.50;;;1.00;;
69912;SDS011;57198;52.082;5.108;2023-09-19T11:51:40;4.43;;;1.20;;
69912;SDS011;57198;52.082;5.108;2023-09-19T11:54:13;4.33;;;1.20;;
69912;SDS011;57198;52.082;5.108;2023-09-19T11:56:51;5.35;;;0.90;;
69912;SDS011;57198;52.082;5.108;2023-09-19T11:59:31;8.15;;;1.10;;
69912;SDS011;57198;52.082;5.108;2023-09-19T12:02:06;3.47;;;0.90;;
69912;SDS011;57198;52.082;5.108;2023-09-19T12:07:05;5.20;;;1.67;;
69912;SDS011;57198;52.082;5.108;2023-09-19T12:09:40;8.43;;;1.20;;
69912;SDS011;57198;52.082;5.108;2023-09-19T12:12:23;4.45;;;1.10;;
69912;SDS011;57198;52.082;5.108;2023-09-19T12:14:53;3.30;;;1.00;;
69912;SDS011;57198;52.082;5.108;2023-09-19T12:17:23;4.90;;;1.13;;
69912;SDS011;57198;52.082;5.108;2023-09-19T12:19:51;4.43;;;0.90;;
69912;SDS011;57198;52.082;5.108;2023-09-19T12:22:19;5.07;;;1.17;;
69912;SDS011;57198;52.082;5.108;2023-09-19T12:24:47;3.60;;;0.80;;
69912;SDS011;57198;52.082;5.108;2023-09-19T12:27:15;6.65;;;1.30;;
69912;SDS011;57198;52.082;5.108;2023-09-19T12:29:46;4.50;;;1.20;;
69912;SDS011;57198;52.082;5.108;2023-09-19T12:32:36;6.40;;;1.30;;
69912;SDS011;57198;52.082;5.108;2023-09-19T12:35:07;8.77;;;1.13;;
69912;SDS011;57198;52.082;5.108;2023-09-19T12:37:37;5.13;;;0.80;;
69912;SDS011;57198;52.082;5.108;2023-09-19T12:40:09;5.07;;;1.10;;
69912;SDS011;57198;52.082;5.108;2023-09-19T12:42:49;4.72;;;1.10;;
69912;SDS011;57198;52.082;5.108;2023-09-19T12:45:16;5.40;;;1.20;;
69912;SDS011;57198;52.082;5.108;2023-09-19T12:50:58;1.63;;;1.02;;
69912;SDS011;57198;52.082;5.108;2023-09-19T12:53:26;5.82;;;1.48;;
69912;SDS011;57198;52.082;5.108;2023-09-19T12:55:59;5.30;;;1.02;;
69912;SDS011;57198;52.082;5.108;2023-09-19T12:58:26;3.93;;;1.00;;
69912;SDS011;57198;52.082;5.108;2023-09-19T13:00:57;3.80;;;0.85;;
69912;SDS011;57198;52.082;5.108;2023-09-19T13:03:25;4.95;;;1.02;;
69912;SDS011;57198;52.082;5.108;2023-09-19T13:05:55;5.50;;;1.15;;
69912;SDS011;57198;52.082;5.108;2023-09-19T13:08:25;3.38;;;1.00;;
69912;SDS011;57198;52.082;5.108;2023-09-19T13:11:03;4.37;;;1.70;;
69912;SDS011;57198;52.082;5.108;2023-09-19T13:13:33;8.85;;;1.10;;
69912;SDS011;57198;52.082;5.108;2023-09-19T13:16:02;2.97;;;0.80;;
69912;SDS011;57198;52.082;5.108;2023-09-19T13:18:41;4.78;;;1.08;;
69912;SDS011;57198;52.082;5.108;2023-09-19T13:21:12;7.75;;;1.10;;
69912;SDS011;57198;52.082;5.108;2023-09-19T13:23:51;4.10;;;1.00;;
69912;SDS011;57198;52.082;5.108;2023-09-19T13:26:20;3.00;;;0.90;;
69912;SDS011;57198;52.082;5.108;2023-09-19T13:28:49;2.80;;;1.00;;
69912;SDS011;57198;52.082;5.108;2023-09-19T13:31:16;4.22;;;1.38;;
69912;SDS011;57198;52.082;5.108;2023-09-19T13:33:45;4.10;;;1.02;;
69912;SDS011;57198;52.082;5.108;2023-09-19T13:36:13;3.63;;;1.00;;
69912;SDS011;57198;52.082;5.108;2023-09-19T13:38:41;6.13;;;1.10;;
69912;SDS011;57198;52.082;5.108;2023-09-19T13:41:13;2.85;;;0.90;;
69912;SDS011;57198;52.082;5.108;2023-09-19T13:43:40;3.78;;;0.90;;
69912;SDS011;57198;52.082;5.108;2023-09-19T13:46:07;3.45;;;0.98;;
69912;SDS011;57198;52.082;5.108;2023-09-19T13:48:38;5.13;;;1.10;;
69912;SDS011;57198;52.082;5.108;2023-09-19T13:51:06;4.57;;;1.45;;
69912;SDS011;57198;52.082;5.108;2023-09-19T13:53:34;1.65;;;0.93;;
69912;SDS011;57198;52.082;5.108;2023-09-19T13:56:01;2.63;;;0.82;;
69912;SDS011;57198;52.082;5.108;2023-09-19T13:58:28;3.22;;;1.25;;
69912;SDS011;57198;52.082;5.108;2023-09-19T14:00:57;4.07;;;0.93;;
69912;SDS011;57198;52.082;5.108;2023-09-19T14:03:25;2.38;;;0.93;;
69912;SDS011;57198;52.082;5.108;2023-09-19T14:05:54;5.70;;;1.08;;
69912;SDS011;57198;52.082;5.108;2023-09-19T14:08:22;3.20;;;0.90;;
69912;SDS011;57198;52.082;5.108;2023-09-19T14:10:50;2.53;;;1.20;;
69912;SDS011;57198;52.082;5.108;2023-09-19T14:13:17;6.53;;;1.23;;
69912;SDS011;57198;52.082;5.108;2023-09-19T14:15:44;5.75;;;1.20;;
69912;SDS011;57198;52.082;5.108;2023-09-19T14:18:12;4.45;;;1.50;;
69912;SDS011;57198;52.082;5.108;2023-09-19T14:20:39;7.10;;;1.60;;
69912;SDS011;57198;52.082;5.108;2023-09-19T14:23:07;5.40;;;1.45;;
69912;SDS011;57198;52.082;5.108;2023-09-19T14:25:35;5.27;;;1.30;;
69912;SDS011;57198;52.082;5.108;2023-09-19T14:28:02;6.15;;;1.52;;
69912;SDS011;57198;52.082;5.108;2023-09-19T14:30:30;4.32;;;1.27;;
69912;SDS011;57198;52.082;5.108;2023-09-19T14:32:59;2.67;;;1.40;;
69912;SDS011;57198;52.082;5.108;2023-09-19T14:35:26;5.85;;;1.73;;
69912;SDS011;57198;52.082;5.108;2023-09-19T14:37:53;4.50;;;0.80;;
69912;SDS011;57198;52.082;5.108;2023-09-19T14:40:21;11.77;;;1.50;;
69912;SDS011;57198;52.082;5.108;2023-09-19T14:42:49;5.40;;;1.55;;
69912;SDS011;57198;52.082;5.108;2023-09-19T14:45:18;3.60;;;1.40;;
69912;SDS011;57198;52.082;5.108;2023-09-19T14:47:46;3.03;;;1.17;;
69912;SDS011;57198;52.082;5.108;2023-09-19T14:50:14;3.90;;;1.13;;
69912;SDS011;57198;52.082;5.108;2023-09-19T14:52:42;5.97;;;1.52;;
69912;SDS011;57198;52.082;5.108;2023-09-19T14:55:10;4.57;;;0.95;;
69912;SDS011;57198;52.082;5.108;2023-09-19T14:57:41;5.20;;;1.20;;
69912;SDS011;57198;52.082;5.108;2023-09-19T15:00:11;2.45;;;1.50;;
69912;SDS011;57198;52.082;5.108;2023-09-19T15:02:39;6.23;;;1.57;;
69912;SDS011;57198;52.082;5.108;2023-09-19T15:05:12;7.43;;;1.25;;
69912;SDS011;57198;52.082;5.108;2023-09-19T15:07:45;4.18;;;1.27;;
69912;SDS011;57198;52.082;5.108;2023-09-19T15:10:13;6.85;;;1.60;;
69912;SDS011;57198;52.082;5.108;2023-09-19T15:12:40;7.25;;;1.48;;
69912;SDS011;57198;52.082;5.108;2023-09-19T15:15:07;4.63;;;1.50;;
69912;SDS011;57198;52.082;5.108;2023-09-19T15:17:35;4.55;;;1.58;;
69912;SDS011;57198;52.082;5.108;2023-09-19T15:20:03;4.93;;;1.85;;
69912;SDS011;57198;52.082;5.108;2023-09-19T15:22:33;5.93;;;1.67;;
69912;SDS011;57198;52.082;5.108;2023-09-19T15:25:04;5.40;;;1.60;;
69912;SDS011;57198;52.082;5.108;2023-09-19T15:27:32;4.30;;;1.37;;
69912;SDS011;57198;52.082;5.108;2023-09-19T15:30:00;5.10;;;1.70;;
69912;SDS011;57198;52.082;5.108;2023-09-19T15:32:29;4.03;;;1.65;;
69912;SDS011;57198;52.082;5.108;2023-09-19T15:34:56;4.90;;;1.88;;